PWSweather.com
Personal Weather Stations
Station Observations
GRACELEHAN
The Grace C. Lehan Memorial Weather Station, West Hartford, CT 06107

The Grace C. Lehan Memorial Weather StationWest Hartford, CT 06107

Lat: 41.745629, Lon: -72.7443516

Elevation: 136

Station Type: Davis Vantage Pro2 Plus

Latest ConditionsUpdated 10:38:15 AM EDT Tuesday, Jul 23, 2019
Currently Today's Max Today's Min Today's Average
Temperature 66.0°F18.9°C 66.7°F19.3°C 63.7°F17.6°C 64.7°F18.2°C
Dew Point 65.4°F18.6°C 65.7°F18.7°C 62.8°F17.1°C 63.8°F17.7°C
Winds Calm Calm 9.0 mph -14.5 kmh - - 0.4 mph 0.6 kmh
Wind Gusts 3.0 mph4.8 kmh 12.0 mph19.3 kmh - -
Humidity 98% 98% 96% 97%
Pressure 29.77 in1008.1 mb 29.77 in1008.1 mb 29.72 in1006.4 mb -
Hour Temp Dew Point Humidity Winds Wind Gusts Pressure Precip Precip Rate Daily Precip Total
10:38 AM 66.0°F18.9°C 65.4°F18.6°C 98% Calm Calm 3.0 mph4.8 kmh 29.77 in1008.1 mb 0.00 in0.0 mm 0.00 in0.0 mm 1.97 in50.0 mm
10:36 AM 66.0°F18.9°C 65.4°F18.6°C 98% Calm Calm 3.0 mph4.8 kmh 29.76 in1007.8 mb 0.00 in0.0 mm 0.00 in0.0 mm 1.97 in50.0 mm
10:34 AM 66.0°F18.9°C 65.4°F18.6°C 98% Calm Calm 3.0 mph4.8 kmh 29.77 in1008.1 mb 0.00 in0.0 mm 0.00 in0.0 mm 1.97 in50.0 mm
10:32 AM 66.0°F18.9°C 65.4°F18.6°C 98% Calm Calm 1.0 mph1.6 kmh 29.77 in1008.1 mb 0.00 in0.0 mm 0.00 in0.0 mm 1.97 in50.0 mm
10:30 AM 66.1°F18.9°C 65.5°F18.6°C 98% 9.0 mph NW14.5 kmh NW 9.0 mph14.5 kmh 29.77 in1008.1 mb 0.00 in0.0 mm 0.00 in0.0 mm 1.97 in50.0 mm
10:28 AM 66.2°F19.0°C 65.6°F18.7°C 98% 2.0 mph NE3.2 kmh NE 7.0 mph11.3 kmh 29.77 in1008.1 mb 0.00 in0.0 mm 0.00 in0.0 mm 1.97 in50.0 mm
10:26 AM 66.2°F19.0°C 65.6°F18.7°C 98% Calm Calm 7.0 mph11.3 kmh 29.76 in1007.8 mb 0.00 in0.0 mm 0.00 in0.0 mm 1.97 in50.0 mm
10:24 AM 66.2°F19.0°C 65.6°F18.7°C 98% 5.0 mph ENE8.0 kmh ENE 7.0 mph11.3 kmh 29.76 in1007.8 mb 0.00 in0.0 mm 0.00 in0.0 mm 1.97 in50.0 mm
10:22 AM 66.1°F18.9°C 65.5°F18.6°C 98% Calm Calm 7.0 mph11.3 kmh 29.77 in1008.1 mb 0.00 in0.0 mm 0.00 in0.0 mm 1.97 in50.0 mm
10:20 AM 66.1°F18.9°C 65.5°F18.6°C 98% 2.0 mph ENE3.2 kmh ENE 7.0 mph11.3 kmh 29.76 in1007.8 mb 0.00 in0.0 mm 0.00 in0.0 mm 1.97 in50.0 mm
10:18 AM 66.1°F18.9°C 65.5°F18.6°C 98% 2.0 mph E3.2 kmh E 7.0 mph11.3 kmh 29.76 in1007.8 mb 0.00 in0.0 mm 0.00 in0.0 mm 1.97 in50.0 mm
10:16 AM 66.2°F19.0°C 65.6°F18.7°C 98% 2.0 mph ENE3.2 kmh ENE 7.0 mph11.3 kmh 29.77 in1008.1 mb 0.00 in0.0 mm 0.00 in0.0 mm 1.97 in50.0 mm
10:14 AM 66.1°F18.9°C 65.5°F18.6°C 98% Calm Calm 7.0 mph11.3 kmh 29.77 in1008.1 mb 0.00 in0.0 mm 0.00 in0.0 mm 1.97 in50.0 mm
10:12 AM 66.1°F18.9°C 65.5°F18.6°C 98% 2.0 mph E3.2 kmh E 7.0 mph11.3 kmh 29.77 in1008.1 mb 0.00 in0.0 mm 0.00 in0.0 mm 1.97 in50.0 mm
10:10 AM 65.9°F18.8°C 65.3°F18.5°C 98% Calm Calm 7.0 mph11.3 kmh 29.77 in1008.1 mb 0.00 in0.0 mm 0.00 in0.0 mm 1.97 in50.0 mm
10:08 AM 65.8°F18.8°C 65.2°F18.4°C 98% Calm Calm 7.0 mph11.3 kmh 29.77 in1008.1 mb 0.00 in0.0 mm 0.00 in0.0 mm 1.97 in50.0 mm
10:06 AM 65.7°F18.7°C 65.1°F18.4°C 98% Calm Calm 7.0 mph11.3 kmh 29.77 in1008.1 mb 0.00 in0.0 mm 0.00 in0.0 mm 1.97 in50.0 mm
10:04 AM 65.6°F18.7°C 65.0°F18.3°C 98% Calm Calm 2.0 mph3.2 kmh 29.76 in1007.8 mb 0.00 in0.0 mm 0.00 in0.0 mm 1.97 in50.0 mm
10:02 AM 65.5°F18.6°C 64.9°F18.3°C 98% Calm Calm 2.0 mph3.2 kmh 29.76 in1007.8 mb 0.00 in0.0 mm 0.00 in0.0 mm 1.97 in50.0 mm
10:00 AM 65.4°F18.6°C 64.8°F18.2°C 98% Calm Calm 12.0 mph19.3 kmh 29.76 in1007.8 mb 0.00 in0.0 mm 0.00 in0.0 mm 1.97 in50.0 mm
09:58 AM 65.3°F18.5°C 64.7°F18.2°C 98% Calm Calm 12.0 mph19.3 kmh 29.76 in1007.8 mb 0.00 in0.0 mm 0.00 in0.0 mm 1.97 in50.0 mm
09:56 AM 65.3°F18.5°C 64.7°F18.2°C 98% 3.0 mph E4.8 kmh E 10.0 mph16.1 kmh 29.77 in1008.1 mb 0.00 in0.0 mm 0.00 in0.0 mm 1.97 in50.0 mm
09:54 AM 65.2°F18.4°C 64.6°F18.1°C 98% 3.0 mph NNW4.8 kmh NNW 10.0 mph16.1 kmh 29.77 in1008.1 mb 0.00 in0.0 mm 0.00 in0.0 mm 1.97 in50.0 mm
09:52 AM 65.2°F18.4°C 64.3°F17.9°C 97% Calm Calm 10.0 mph16.1 kmh 29.77 in1008.1 mb 0.00 in0.0 mm 0.00 in0.0 mm 1.97 in50.0 mm
09:50 AM 65.2°F18.4°C 64.3°F17.9°C 97% Calm Calm 10.0 mph16.1 kmh 29.77 in1008.1 mb 0.00 in0.0 mm 0.00 in0.0 mm 1.97 in50.0 mm
09:48 AM 65.1°F18.4°C 64.2°F17.9°C 97% 4.0 mph N6.4 kmh N 9.0 mph14.5 kmh 29.77 in1008.1 mb 0.00 in0.0 mm 0.00 in0.0 mm 1.97 in50.0 mm
09:46 AM 65.1°F18.4°C 64.2°F17.9°C 97% Calm Calm 9.0 mph14.5 kmh 29.76 in1007.8 mb 0.00 in0.0 mm 0.00 in0.0 mm 1.97 in50.0 mm
09:44 AM 65.0°F18.3°C 64.1°F17.8°C 97% 2.0 mph NW3.2 kmh NW 9.0 mph14.5 kmh 29.77 in1008.1 mb 0.00 in0.0 mm 0.00 in0.0 mm 1.97 in50.0 mm
09:42 AM 65.0°F18.3°C 64.1°F17.8°C 97% 3.0 mph NW4.8 kmh NW 9.0 mph14.5 kmh 29.77 in1008.1 mb 0.00 in0.0 mm 0.00 in0.0 mm 1.97 in50.0 mm
09:40 AM 65.1°F18.4°C 64.2°F17.9°C 97% 1.0 mph NW1.6 kmh NW 7.0 mph11.3 kmh 29.77 in1008.1 mb 0.00 in0.0 mm 0.00 in0.0 mm 1.97 in50.0 mm
09:38 AM 65.0°F18.3°C 64.1°F17.8°C 97% 3.0 mph NE4.8 kmh NE 7.0 mph11.3 kmh 29.77 in1008.1 mb 0.00 in0.0 mm 0.00 in0.0 mm 1.97 in50.0 mm
09:36 AM 64.9°F18.3°C 64.0°F17.8°C 97% Calm Calm 7.0 mph11.3 kmh 29.77 in1008.1 mb 0.00 in0.0 mm 0.00 in0.0 mm 1.97 in50.0 mm
09:34 AM 64.9°F18.3°C 64.0°F17.8°C 97% Calm Calm 4.0 mph6.4 kmh 29.76 in1007.8 mb 0.00 in0.0 mm 0.00 in0.0 mm 1.97 in50.0 mm
09:32 AM 64.9°F18.3°C 64.0°F17.8°C 97% Calm Calm 4.0 mph6.4 kmh 29.76 in1007.8 mb 0.00 in0.0 mm 0.00 in0.0 mm 1.97 in50.0 mm
09:30 AM 64.9°F18.3°C 64.0°F17.8°C 97% 5.0 mph NW8.0 kmh NW 7.0 mph11.3 kmh 29.76 in1007.8 mb 0.00 in0.0 mm 0.00 in0.0 mm 1.97 in50.0 mm
09:28 AM 64.9°F18.3°C 64.3°F17.9°C 98% 3.0 mph NE4.8 kmh NE 7.0 mph11.3 kmh 29.76 in1007.8 mb 0.00 in0.0 mm 0.00 in0.0 mm 1.97 in50.0 mm
09:26 AM 64.9°F18.3°C 64.3°F17.9°C 98% Calm Calm 7.0 mph11.3 kmh 29.75 in1007.5 mb 0.00 in0.0 mm 0.00 in0.0 mm 1.97 in50.0 mm
09:24 AM 64.8°F18.2°C 64.2°F17.9°C 98% Calm Calm 7.0 mph11.3 kmh 29.75 in1007.5 mb 0.00 in0.0 mm 0.00 in0.0 mm 1.97 in50.0 mm
09:22 AM 64.7°F18.2°C 64.1°F17.8°C 98% Calm Calm 7.0 mph11.3 kmh 29.75 in1007.5 mb 0.00 in0.0 mm 0.00 in0.0 mm 1.97 in50.0 mm
09:20 AM 64.8°F18.2°C 64.2°F17.9°C 98% 7.0 mph ENE11.3 kmh ENE 7.0 mph11.3 kmh 29.75 in1007.5 mb 0.00 in0.0 mm 0.00 in0.0 mm 1.97 in50.0 mm
09:18 AM 64.8°F18.2°C 64.2°F17.9°C 98% Calm Calm 7.0 mph11.3 kmh 29.75 in1007.5 mb 0.00 in0.0 mm 0.00 in0.0 mm 1.97 in50.0 mm
09:16 AM 64.8°F18.2°C 64.2°F17.9°C 98% Calm Calm 7.0 mph11.3 kmh 29.76 in1007.8 mb 0.00 in0.0 mm 0.00 in0.0 mm 1.97 in50.0 mm
09:14 AM 64.8°F18.2°C 64.2°F17.9°C 98% Calm Calm 7.0 mph11.3 kmh 29.76 in1007.8 mb 0.00 in0.0 mm 0.00 in0.0 mm 1.97 in50.0 mm
09:12 AM 64.8°F18.2°C 64.2°F17.9°C 98% Calm Calm 7.0 mph11.3 kmh 29.76 in1007.8 mb 0.00 in0.0 mm 0.00 in0.0 mm 1.97 in50.0 mm
09:10 AM 64.7°F18.2°C 64.1°F17.8°C 98% 1.0 mph NNW1.6 kmh NNW 7.0 mph11.3 kmh 29.76 in1007.8 mb 0.00 in0.0 mm 0.00 in0.0 mm 1.97 in50.0 mm
09:08 AM 64.7°F18.2°C 64.1°F17.8°C 98% Calm Calm 7.0 mph11.3 kmh 29.76 in1007.8 mb 0.00 in0.0 mm 0.00 in0.0 mm 1.97 in50.0 mm
09:06 AM 64.7°F18.2°C 64.1°F17.8°C 98% Calm Calm 7.0 mph11.3 kmh 29.76 in1007.8 mb 0.00 in0.0 mm 0.00 in0.0 mm 1.97 in50.0 mm
09:04 AM 64.7°F18.2°C 64.1°F17.8°C 98% Calm Calm 7.0 mph11.3 kmh 29.76 in1007.8 mb 0.00 in0.0 mm 0.00 in0.0 mm 1.97 in50.0 mm
09:02 AM 64.6°F18.1°C 64.0°F17.8°C 98% 6.0 mph ENE9.7 kmh ENE 6.0 mph9.7 kmh 29.76 in1007.8 mb 0.00 in0.0 mm 0.00 in0.0 mm 1.97 in50.0 mm
09:00 AM 64.6°F18.1°C 64.0°F17.8°C 98% Calm Calm 7.0 mph11.3 kmh 29.76 in1007.8 mb 0.00 in0.0 mm 0.00 in0.0 mm 1.97 in50.0 mm
08:58 AM 64.5°F18.1°C 63.6°F17.6°C 97% Calm Calm 7.0 mph11.3 kmh 29.77 in1008.1 mb 0.00 in0.0 mm 0.00 in0.0 mm 1.97 in50.0 mm
08:56 AM 64.4°F18.0°C 63.5°F17.5°C 97% 4.0 mph NNW6.4 kmh NNW 7.0 mph11.3 kmh 29.77 in1008.1 mb 0.00 in0.0 mm 0.00 in0.0 mm 1.97 in50.0 mm
08:54 AM 64.4°F18.0°C 63.5°F17.5°C 97% Calm Calm 7.0 mph11.3 kmh 29.77 in1008.1 mb 0.00 in0.0 mm 0.00 in0.0 mm 1.97 in50.0 mm
08:52 AM 64.4°F18.0°C 63.5°F17.5°C 97% Calm Calm 7.0 mph11.3 kmh 29.77 in1008.1 mb 0.00 in0.0 mm 0.00 in0.0 mm 1.97 in50.0 mm
08:50 AM 64.4°F18.0°C 63.5°F17.5°C 97% Calm Calm 7.0 mph11.3 kmh 29.77 in1008.1 mb 0.00 in0.0 mm 0.00 in0.0 mm 1.97 in50.0 mm
08:48 AM 64.4°F18.0°C 63.5°F17.5°C 97% Calm Calm 7.0 mph11.3 kmh 29.76 in1007.8 mb 0.00 in0.0 mm 0.00 in0.0 mm 1.97 in50.0 mm
08:46 AM 64.4°F18.0°C 63.5°F17.5°C 97% Calm Calm 7.0 mph11.3 kmh 29.76 in1007.8 mb 0.00 in0.0 mm 0.00 in0.0 mm 1.97 in50.0 mm
08:44 AM 64.4°F18.0°C 63.5°F17.5°C 97% Calm Calm 7.0 mph11.3 kmh 29.77 in1008.1 mb 0.00 in0.0 mm 0.00 in0.0 mm 1.97 in50.0 mm
08:42 AM 64.4°F18.0°C 63.5°F17.5°C 97% Calm Calm 3.0 mph4.8 kmh 29.76 in1007.8 mb 0.00 in0.0 mm 0.00 in0.0 mm 1.97 in50.0 mm
08:40 AM 64.4°F18.0°C 63.5°F17.5°C 97% Calm Calm 3.0 mph4.8 kmh 29.76 in1007.8 mb 0.00 in0.0 mm 0.00 in0.0 mm 1.97 in50.0 mm
08:38 AM 64.4°F18.0°C 63.5°F17.5°C 97% Calm Calm 3.0 mph4.8 kmh 29.76 in1007.8 mb 0.00 in0.0 mm 0.00 in0.0 mm 1.97 in50.0 mm
08:36 AM 64.4°F18.0°C 63.5°F17.5°C 97% Calm Calm 3.0 mph4.8 kmh 29.76 in1007.8 mb 0.00 in0.0 mm 0.00 in0.0 mm 1.97 in50.0 mm
08:34 AM 64.3°F17.9°C 63.4°F17.4°C 97% 3.0 mph E4.8 kmh E 3.0 mph4.8 kmh 29.76 in1007.8 mb 0.00 in0.0 mm 0.00 in0.0 mm 1.97 in50.0 mm
08:32 AM 64.3°F17.9°C 63.4°F17.4°C 97% Calm Calm -- 29.76 in1007.8 mb 0.00 in0.0 mm 0.00 in0.0 mm 1.97 in50.0 mm
08:30 AM 64.2°F17.9°C 63.3°F17.4°C 97% Calm Calm 6.0 mph9.7 kmh 29.76 in1007.8 mb 0.00 in0.0 mm 0.00 in0.0 mm 1.97 in50.0 mm
08:28 AM 64.3°F17.9°C 63.4°F17.4°C 97% Calm Calm 6.0 mph9.7 kmh 29.76 in1007.8 mb 0.00 in0.0 mm 0.00 in0.0 mm 1.97 in50.0 mm
08:26 AM 64.3°F17.9°C 63.4°F17.4°C 97% Calm Calm 6.0 mph9.7 kmh 29.76 in1007.8 mb 0.00 in0.0 mm 0.00 in0.0 mm 1.97 in50.0 mm
08:24 AM 64.2°F17.9°C 63.3°F17.4°C 97% Calm Calm 6.0 mph9.7 kmh 29.76 in1007.8 mb 0.00 in0.0 mm 0.00 in0.0 mm 1.97 in50.0 mm
08:22 AM 64.3°F17.9°C 63.4°F17.4°C 97% Calm Calm 6.0 mph9.7 kmh 29.76 in1007.8 mb 0.00 in0.0 mm 0.00 in0.0 mm 1.97 in50.0 mm
08:20 AM 64.2°F17.9°C 63.3°F17.4°C 97% Calm Calm 6.0 mph9.7 kmh 29.76 in1007.8 mb 0.00 in0.0 mm 0.00 in0.0 mm 1.97 in50.0 mm
08:18 AM 64.2°F17.9°C 63.3°F17.4°C 97% Calm Calm 6.0 mph9.7 kmh 29.77 in1008.1 mb 0.00 in0.0 mm 0.00 in0.0 mm 1.97 in50.0 mm
08:16 AM 64.2°F17.9°C 63.3°F17.4°C 97% Calm Calm 6.0 mph9.7 kmh 29.77 in1008.1 mb 0.00 in0.0 mm 0.00 in0.0 mm 1.97 in50.0 mm
08:14 AM 64.3°F17.9°C 63.4°F17.4°C 97% Calm Calm 6.0 mph9.7 kmh 29.77 in1008.1 mb 0.00 in0.0 mm 0.00 in0.0 mm 1.97 in50.0 mm
08:12 AM 64.2°F17.9°C 63.3°F17.4°C 97% Calm Calm 6.0 mph9.7 kmh 29.77 in1008.1 mb 0.00 in0.0 mm 0.00 in0.0 mm 1.97 in50.0 mm
08:10 AM 64.2°F17.9°C 63.3°F17.4°C 97% 2.0 mph NNE3.2 kmh NNE 6.0 mph9.7 kmh 29.77 in1008.1 mb 0.00 in0.0 mm 0.00 in0.0 mm 1.97 in50.0 mm
08:08 AM 64.2°F17.9°C 63.3°F17.4°C 97% Calm Calm 6.0 mph9.7 kmh 29.77 in1008.1 mb 0.00 in0.0 mm 0.00 in0.0 mm 1.97 in50.0 mm
08:06 AM 64.1°F17.8°C 63.2°F17.3°C 97% Calm Calm 5.0 mph8.0 kmh 29.77 in1008.1 mb 0.00 in0.0 mm 0.00 in0.0 mm 1.97 in50.0 mm
08:04 AM 64.1°F17.8°C 63.2°F17.3°C 97% Calm Calm 5.0 mph8.0 kmh 29.76 in1007.8 mb 0.00 in0.0 mm 0.00 in0.0 mm 1.97 in50.0 mm
08:02 AM 64.1°F17.8°C 63.2°F17.3°C 97% Calm Calm 5.0 mph8.0 kmh 29.76 in1007.8 mb 0.00 in0.0 mm 0.00 in0.0 mm 1.97 in50.0 mm
08:01 AM 64.1°F17.8°C 63.2°F17.3°C 97% Calm Calm 5.0 mph8.0 kmh 29.76 in1007.8 mb 0.00 in0.0 mm 0.00 in0.0 mm 1.97 in50.0 mm
07:58 AM 64.1°F17.8°C 63.2°F17.3°C 97% 3.0 mph NNW4.8 kmh NNW 6.0 mph9.7 kmh 29.76 in1007.8 mb 1.02 in25.9 mm 0.00 in0.0 mm 1.97 in50.0 mm
07:56 AM 64.1°F17.8°C 63.2°F17.3°C 97% Calm Calm 6.0 mph9.7 kmh 29.76 in1007.8 mb 1.02 in25.9 mm 0.00 in0.0 mm 1.97 in50.0 mm
07:54 AM 64.1°F17.8°C 63.2°F17.3°C 97% Calm Calm 5.0 mph8.0 kmh 29.76 in1007.8 mb 1.02 in25.9 mm 0.00 in0.0 mm 1.97 in50.0 mm
07:52 AM 64.2°F17.9°C 63.3°F17.4°C 97% 2.0 mph NW3.2 kmh NW 5.0 mph8.0 kmh 29.75 in1007.5 mb 1.02 in25.9 mm 0.00 in0.0 mm 1.97 in50.0 mm
07:50 AM 64.2°F17.9°C 63.3°F17.4°C 97% Calm Calm 5.0 mph8.0 kmh 29.75 in1007.5 mb 1.02 in25.9 mm 0.00 in0.0 mm 1.97 in50.0 mm
07:48 AM 64.2°F17.9°C 63.3°F17.4°C 97% Calm Calm 5.0 mph8.0 kmh 29.75 in1007.5 mb 1.02 in25.9 mm 0.00 in0.0 mm 1.97 in50.0 mm
07:46 AM 64.2°F17.9°C 63.3°F17.4°C 97% 3.0 mph N4.8 kmh N 5.0 mph8.0 kmh 29.75 in1007.5 mb 1.02 in25.9 mm 0.00 in0.0 mm 1.97 in50.0 mm
07:44 AM 64.2°F17.9°C 63.3°F17.4°C 97% Calm Calm 5.0 mph8.0 kmh 29.75 in1007.5 mb 1.02 in25.9 mm 0.00 in0.0 mm 1.97 in50.0 mm
07:42 AM 64.2°F17.9°C 63.3°F17.4°C 97% Calm Calm 5.0 mph8.0 kmh 29.75 in1007.5 mb 1.02 in25.9 mm 0.00 in0.0 mm 1.97 in50.0 mm
07:40 AM 64.1°F17.8°C 63.2°F17.3°C 97% Calm Calm 5.0 mph8.0 kmh 29.75 in1007.5 mb 1.02 in25.9 mm 0.00 in0.0 mm 1.97 in50.0 mm
07:38 AM 64.1°F17.8°C 63.2°F17.3°C 97% Calm Calm 5.0 mph8.0 kmh 29.75 in1007.5 mb 1.02 in25.9 mm 0.00 in0.0 mm 1.97 in50.0 mm
07:36 AM 64.1°F17.8°C 63.2°F17.3°C 97% Calm Calm 5.0 mph8.0 kmh 29.75 in1007.5 mb 1.02 in25.9 mm 0.00 in0.0 mm 1.97 in50.0 mm
07:34 AM 64.1°F17.8°C 63.2°F17.3°C 97% Calm Calm 5.0 mph8.0 kmh 29.75 in1007.5 mb 1.02 in25.9 mm 0.00 in0.0 mm 1.97 in50.0 mm
07:32 AM 64.1°F17.8°C 63.2°F17.3°C 97% 1.0 mph N1.6 kmh N 5.0 mph8.0 kmh 29.75 in1007.5 mb 1.02 in25.9 mm 0.00 in0.0 mm 1.97 in50.0 mm
07:30 AM 64.0°F17.8°C 63.1°F17.3°C 97% 3.0 mph NW4.8 kmh NW 5.0 mph8.0 kmh 29.75 in1007.5 mb 1.02 in25.9 mm 0.00 in0.0 mm 1.97 in50.0 mm
07:28 AM 64.0°F17.8°C 63.1°F17.3°C 97% Calm Calm 5.0 mph8.0 kmh 29.74 in1007.1 mb 1.02 in25.9 mm 0.00 in0.0 mm 1.97 in50.0 mm
07:26 AM 64.0°F17.8°C 63.1°F17.3°C 97% Calm Calm 5.0 mph8.0 kmh 29.74 in1007.1 mb 1.02 in25.9 mm 0.00 in0.0 mm 1.97 in50.0 mm
07:24 AM 64.0°F17.8°C 63.1°F17.3°C 97% Calm Calm 5.0 mph8.0 kmh 29.74 in1007.1 mb 1.02 in25.9 mm 0.00 in0.0 mm 1.97 in50.0 mm
07:22 AM 63.9°F17.7°C 63.0°F17.2°C 97% 2.0 mph N3.2 kmh N 5.0 mph8.0 kmh 29.74 in1007.1 mb 1.02 in25.9 mm 0.00 in0.0 mm 1.97 in50.0 mm
07:20 AM 63.8°F17.7°C 62.9°F17.2°C 97% Calm Calm 5.0 mph8.0 kmh 29.75 in1007.5 mb 1.02 in25.9 mm 0.00 in0.0 mm 1.97 in50.0 mm
07:18 AM 63.8°F17.7°C 62.9°F17.2°C 97% Calm Calm 5.0 mph8.0 kmh 29.74 in1007.1 mb 1.02 in25.9 mm 0.00 in0.0 mm 1.97 in50.0 mm
07:16 AM 63.8°F17.7°C 62.9°F17.2°C 97% 2.0 mph WNW3.2 kmh WNW 5.0 mph8.0 kmh 29.75 in1007.5 mb 1.02 in25.9 mm 0.00 in0.0 mm 1.97 in50.0 mm
07:14 AM 63.8°F17.7°C 62.9°F17.2°C 97% Calm Calm 5.0 mph8.0 kmh 29.75 in1007.5 mb 1.02 in25.9 mm 0.00 in0.0 mm 1.97 in50.0 mm
07:12 AM 63.8°F17.7°C 62.9°F17.2°C 97% Calm Calm 5.0 mph8.0 kmh 29.75 in1007.5 mb 1.02 in25.9 mm 0.00 in0.0 mm 1.97 in50.0 mm
07:10 AM 63.8°F17.7°C 62.9°F17.2°C 97% Calm Calm 5.0 mph8.0 kmh 29.74 in1007.1 mb 1.02 in25.9 mm 0.00 in0.0 mm 1.97 in50.0 mm
07:08 AM 63.8°F17.7°C 62.9°F17.2°C 97% Calm Calm 5.0 mph8.0 kmh 29.74 in1007.1 mb 1.02 in25.9 mm 0.00 in0.0 mm 1.97 in50.0 mm
07:06 AM 63.8°F17.7°C 62.9°F17.2°C 97% Calm Calm 5.0 mph8.0 kmh 29.73 in1006.8 mb 1.02 in25.9 mm 0.00 in0.0 mm 1.97 in50.0 mm
07:04 AM 63.8°F17.7°C 62.9°F17.2°C 97% Calm Calm 5.0 mph8.0 kmh 29.73 in1006.8 mb 1.02 in25.9 mm 0.00 in0.0 mm 1.97 in50.0 mm
07:02 AM 63.8°F17.7°C 62.9°F17.2°C 97% Calm Calm 5.0 mph8.0 kmh 29.74 in1007.1 mb 1.02 in25.9 mm 0.00 in0.0 mm 1.97 in50.0 mm
07:00 AM 63.8°F17.7°C 62.9°F17.2°C 97% Calm Calm 12.0 mph19.3 kmh 29.74 in1007.1 mb 1.02 in25.9 mm 1.06 in26.9 mm 1.97 in50.0 mm
06:58 AM 63.8°F17.7°C 62.9°F17.2°C 97% 4.0 mph NE6.4 kmh NE 12.0 mph19.3 kmh 29.73 in1006.8 mb 0.00 in0.0 mm 0.00 in0.0 mm 0.95 in24.1 mm
06:56 AM 63.8°F17.7°C 62.9°F17.2°C 97% Calm Calm 12.0 mph19.3 kmh 29.73 in1006.8 mb 0.00 in0.0 mm 0.00 in0.0 mm 0.95 in24.1 mm
06:54 AM 63.8°F17.7°C 62.9°F17.2°C 97% 1.0 mph E1.6 kmh E 12.0 mph19.3 kmh 29.73 in1006.8 mb 0.00 in0.0 mm 0.00 in0.0 mm 0.95 in24.1 mm
06:52 AM 63.8°F17.7°C 62.9°F17.2°C 97% 2.0 mph N3.2 kmh N 12.0 mph19.3 kmh 29.72 in1006.4 mb 0.00 in0.0 mm 0.00 in0.0 mm 0.95 in24.1 mm
06:50 AM 63.8°F17.7°C 62.9°F17.2°C 97% Calm Calm 12.0 mph19.3 kmh 29.72 in1006.4 mb 0.00 in0.0 mm 0.00 in0.0 mm 0.95 in24.1 mm
06:48 AM 63.8°F17.7°C 62.9°F17.2°C 97% 3.0 mph E4.8 kmh E 12.0 mph19.3 kmh 29.73 in1006.8 mb 0.00 in0.0 mm 0.00 in0.0 mm 0.95 in24.1 mm
06:46 AM 63.7°F17.6°C 62.8°F17.1°C 97% Calm Calm 10.0 mph16.1 kmh 29.73 in1006.8 mb 0.00 in0.0 mm 0.00 in0.0 mm 0.95 in24.1 mm
06:44 AM 63.8°F17.7°C 62.9°F17.2°C 97% Calm Calm 10.0 mph16.1 kmh 29.73 in1006.8 mb 0.00 in0.0 mm 0.00 in0.0 mm 0.95 in24.1 mm
06:42 AM 63.8°F17.7°C 62.9°F17.2°C 97% 6.0 mph NNW9.7 kmh NNW 10.0 mph16.1 kmh 29.73 in1006.8 mb 0.00 in0.0 mm 0.00 in0.0 mm 0.95 in24.1 mm
06:40 AM 63.7°F17.6°C 62.8°F17.1°C 97% 1.0 mph N1.6 kmh N 10.0 mph16.1 kmh 29.74 in1007.1 mb 0.00 in0.0 mm 0.00 in0.0 mm 0.95 in24.1 mm
06:38 AM 63.7°F17.6°C 62.8°F17.1°C 97% Calm Calm 10.0 mph16.1 kmh 29.74 in1007.1 mb 0.00 in0.0 mm 0.00 in0.0 mm 0.95 in24.1 mm
06:36 AM 63.7°F17.6°C 62.8°F17.1°C 97% Calm Calm 10.0 mph16.1 kmh 29.73 in1006.8 mb 0.00 in0.0 mm 0.00 in0.0 mm 0.95 in24.1 mm
06:34 AM 63.7°F17.6°C 62.8°F17.1°C 97% 2.0 mph NW3.2 kmh NW 10.0 mph16.1 kmh 29.73 in1006.8 mb 0.00 in0.0 mm 0.00 in0.0 mm 0.95 in24.1 mm
06:32 AM 63.7°F17.6°C 62.8°F17.1°C 97% Calm Calm 1.0 mph1.6 kmh 29.73 in1006.8 mb 0.00 in0.0 mm 0.00 in0.0 mm 0.95 in24.1 mm
06:30 AM 63.7°F17.6°C 62.8°F17.1°C 97% Calm Calm 7.0 mph11.3 kmh 29.73 in1006.8 mb 0.00 in0.0 mm 0.00 in0.0 mm 0.95 in24.1 mm
06:28 AM 63.7°F17.6°C 62.8°F17.1°C 97% Calm Calm 7.0 mph11.3 kmh 29.73 in1006.8 mb 0.00 in0.0 mm 0.00 in0.0 mm 0.95 in24.1 mm
06:26 AM 63.7°F17.6°C 62.8°F17.1°C 97% Calm Calm 6.0 mph9.7 kmh 29.74 in1007.1 mb 0.00 in0.0 mm 0.00 in0.0 mm 0.95 in24.1 mm
06:24 AM 63.7°F17.6°C 62.8°F17.1°C 97% Calm Calm 6.0 mph9.7 kmh 29.73 in1006.8 mb 0.00 in0.0 mm 0.00 in0.0 mm 0.95 in24.1 mm
06:22 AM 63.7°F17.6°C 62.8°F17.1°C 97% Calm Calm 6.0 mph9.7 kmh 29.74 in1007.1 mb 0.00 in0.0 mm 0.00 in0.0 mm 0.95 in24.1 mm
06:20 AM 63.7°F17.6°C 62.8°F17.1°C 97% Calm Calm 6.0 mph9.7 kmh 29.75 in1007.5 mb 0.00 in0.0 mm 0.00 in0.0 mm 0.95 in24.1 mm
06:18 AM 63.7°F17.6°C 62.8°F17.1°C 97% Calm Calm 6.0 mph9.7 kmh 29.75 in1007.5 mb 0.00 in0.0 mm 0.00 in0.0 mm 0.95 in24.1 mm
06:16 AM 63.7°F17.6°C 62.8°F17.1°C 97% Calm Calm 3.0 mph4.8 kmh 29.75 in1007.5 mb 0.00 in0.0 mm 0.00 in0.0 mm 0.95 in24.1 mm
06:14 AM 63.7°F17.6°C 62.8°F17.1°C 97% Calm Calm 3.0 mph4.8 kmh 29.76 in1007.8 mb 0.00 in0.0 mm 0.00 in0.0 mm 0.95 in24.1 mm
06:12 AM 63.7°F17.6°C 62.8°F17.1°C 97% Calm Calm 2.0 mph3.2 kmh 29.75 in1007.5 mb 0.00 in0.0 mm 0.00 in0.0 mm 0.95 in24.1 mm
06:10 AM 63.7°F17.6°C 62.8°F17.1°C 97% Calm Calm 2.0 mph3.2 kmh 29.75 in1007.5 mb 0.00 in0.0 mm 0.00 in0.0 mm 0.95 in24.1 mm
06:08 AM 63.7°F17.6°C 62.8°F17.1°C 97% Calm Calm 2.0 mph3.2 kmh 29.75 in1007.5 mb 0.00 in0.0 mm 0.00 in0.0 mm 0.95 in24.1 mm
06:06 AM 63.7°F17.6°C 62.8°F17.1°C 97% Calm Calm 2.0 mph3.2 kmh 29.75 in1007.5 mb 0.00 in0.0 mm 0.00 in0.0 mm 0.95 in24.1 mm
06:04 AM 63.7°F17.6°C 62.8°F17.1°C 97% Calm Calm 2.0 mph3.2 kmh 29.75 in1007.5 mb 0.00 in0.0 mm 0.00 in0.0 mm 0.95 in24.1 mm
06:02 AM 63.7°F17.6°C 62.8°F17.1°C 97% Calm Calm 2.0 mph3.2 kmh 29.75 in1007.5 mb 0.00 in0.0 mm 0.00 in0.0 mm 0.95 in24.1 mm
06:00 AM 63.7°F17.6°C 62.8°F17.1°C 97% Calm Calm 2.0 mph3.2 kmh 29.75 in1007.5 mb 0.00 in0.0 mm 0.00 in0.0 mm 0.95 in24.1 mm
05:58 AM 63.7°F17.6°C 62.8°F17.1°C 97% Calm Calm 6.0 mph9.7 kmh 29.75 in1007.5 mb 0.00 in0.0 mm 0.00 in0.0 mm 0.95 in24.1 mm
05:56 AM 63.7°F17.6°C 62.8°F17.1°C 97% Calm Calm 6.0 mph9.7 kmh 29.75 in1007.5 mb 0.00 in0.0 mm 0.00 in0.0 mm 0.95 in24.1 mm
05:54 AM 63.7°F17.6°C 62.8°F17.1°C 97% Calm Calm 6.0 mph9.7 kmh 29.75 in1007.5 mb 0.00 in0.0 mm 0.00 in0.0 mm 0.95 in24.1 mm
05:52 AM 63.8°F17.7°C 62.9°F17.2°C 97% Calm Calm 6.0 mph9.7 kmh 29.75 in1007.5 mb 0.00 in0.0 mm 0.00 in0.0 mm 0.95 in24.1 mm
05:50 AM 63.8°F17.7°C 62.9°F17.2°C 97% Calm Calm 5.0 mph8.0 kmh 29.76 in1007.8 mb 0.00 in0.0 mm 0.00 in0.0 mm 0.95 in24.1 mm
05:48 AM 63.8°F17.7°C 62.9°F17.2°C 97% Calm Calm 5.0 mph8.0 kmh 29.75 in1007.5 mb 0.00 in0.0 mm 0.00 in0.0 mm 0.95 in24.1 mm
05:46 AM 63.8°F17.7°C 62.9°F17.2°C 97% Calm Calm 5.0 mph8.0 kmh 29.75 in1007.5 mb 0.00 in0.0 mm 0.00 in0.0 mm 0.95 in24.1 mm
05:44 AM 63.8°F17.7°C 62.9°F17.2°C 97% 3.0 mph NW4.8 kmh NW 5.0 mph8.0 kmh 29.75 in1007.5 mb 0.00 in0.0 mm 0.00 in0.0 mm 0.95 in24.1 mm
05:42 AM 63.8°F17.7°C 62.9°F17.2°C 97% Calm Calm 5.0 mph8.0 kmh 29.76 in1007.8 mb 0.00 in0.0 mm 0.00 in0.0 mm 0.95 in24.1 mm
05:40 AM 63.8°F17.7°C 62.9°F17.2°C 97% Calm Calm 5.0 mph8.0 kmh 29.75 in1007.5 mb 0.00 in0.0 mm 0.00 in0.0 mm 0.95 in24.1 mm
05:38 AM 63.8°F17.7°C 62.9°F17.2°C 97% Calm Calm 5.0 mph8.0 kmh 29.75 in1007.5 mb 0.00 in0.0 mm 0.00 in0.0 mm 0.95 in24.1 mm
05:36 AM 63.9°F17.7°C 63.0°F17.2°C 97% Calm Calm 5.0 mph8.0 kmh 29.75 in1007.5 mb 0.00 in0.0 mm 0.00 in0.0 mm 0.95 in24.1 mm
05:34 AM 63.9°F17.7°C 63.0°F17.2°C 97% Calm Calm 5.0 mph8.0 kmh 29.75 in1007.5 mb 0.00 in0.0 mm 0.00 in0.0 mm 0.95 in24.1 mm
05:32 AM 63.9°F17.7°C 63.0°F17.2°C 97% Calm Calm 5.0 mph8.0 kmh 29.76 in1007.8 mb 0.00 in0.0 mm 0.00 in0.0 mm 0.95 in24.1 mm
05:30 AM 63.8°F17.7°C 62.9°F17.2°C 97% Calm Calm 9.0 mph14.5 kmh 29.75 in1007.5 mb 0.00 in0.0 mm 0.00 in0.0 mm 0.95 in24.1 mm
05:28 AM 63.9°F17.7°C 63.0°F17.2°C 97% Calm Calm 9.0 mph14.5 kmh 29.75 in1007.5 mb 0.00 in0.0 mm 0.00 in0.0 mm 0.95 in24.1 mm
05:26 AM 63.8°F17.7°C 62.9°F17.2°C 97% Calm Calm 9.0 mph14.5 kmh 29.75 in1007.5 mb 0.00 in0.0 mm 0.00 in0.0 mm 0.95 in24.1 mm
05:24 AM 63.8°F17.7°C 62.9°F17.2°C 97% Calm Calm 9.0 mph14.5 kmh 29.75 in1007.5 mb 0.00 in0.0 mm 0.00 in0.0 mm 0.95 in24.1 mm
05:22 AM 63.9°F17.7°C 63.0°F17.2°C 97% Calm Calm 9.0 mph14.5 kmh 29.75 in1007.5 mb 0.00 in0.0 mm 0.00 in0.0 mm 0.95 in24.1 mm
05:20 AM 63.8°F17.7°C 62.9°F17.2°C 97% Calm Calm 9.0 mph14.5 kmh 29.75 in1007.5 mb 0.00 in0.0 mm 0.00 in0.0 mm 0.95 in24.1 mm
05:18 AM 63.9°F17.7°C 63.0°F17.2°C 97% Calm Calm 9.0 mph14.5 kmh 29.75 in1007.5 mb 0.00 in0.0 mm 0.00 in0.0 mm 0.95 in24.1 mm
05:16 AM 63.9°F17.7°C 63.0°F17.2°C 97% Calm Calm 9.0 mph14.5 kmh 29.75 in1007.5 mb 0.00 in0.0 mm 0.00 in0.0 mm 0.95 in24.1 mm
05:14 AM 63.9°F17.7°C 63.0°F17.2°C 97% Calm Calm 9.0 mph14.5 kmh 29.75 in1007.5 mb 0.00 in0.0 mm 0.00 in0.0 mm 0.95 in24.1 mm
05:12 AM 63.9°F17.7°C 63.0°F17.2°C 97% Calm Calm 9.0 mph14.5 kmh 29.75 in1007.5 mb 0.00 in0.0 mm 0.00 in0.0 mm 0.95 in24.1 mm
05:10 AM 63.9°F17.7°C 63.0°F17.2°C 97% Calm Calm 5.0 mph8.0 kmh 29.75 in1007.5 mb 0.00 in0.0 mm 0.00 in0.0 mm 0.95 in24.1 mm
05:08 AM 63.9°F17.7°C 63.0°F17.2°C 97% Calm Calm 5.0 mph8.0 kmh 29.75 in1007.5 mb 0.00 in0.0 mm 0.00 in0.0 mm 0.95 in24.1 mm
05:06 AM 63.9°F17.7°C 63.0°F17.2°C 97% Calm Calm 5.0 mph8.0 kmh 29.75 in1007.5 mb 0.00 in0.0 mm 0.00 in0.0 mm 0.95 in24.1 mm
05:04 AM 63.9°F17.7°C 63.0°F17.2°C 97% Calm Calm 5.0 mph8.0 kmh 29.75 in1007.5 mb 0.00 in0.0 mm 0.00 in0.0 mm 0.95 in24.1 mm
05:02 AM 63.9°F17.7°C 63.0°F17.2°C 97% Calm Calm -- 29.75 in1007.5 mb 0.00 in0.0 mm 0.00 in0.0 mm 0.95 in24.1 mm
05:00 AM 63.9°F17.7°C 63.0°F17.2°C 97% Calm Calm 7.0 mph11.3 kmh 29.75 in1007.5 mb 0.00 in0.0 mm 0.00 in0.0 mm 0.95 in24.1 mm
04:58 AM 64.0°F17.8°C 63.1°F17.3°C 97% Calm Calm 7.0 mph11.3 kmh 29.75 in1007.5 mb 0.00 in0.0 mm 0.00 in0.0 mm 0.95 in24.1 mm
04:56 AM 64.0°F17.8°C 63.1°F17.3°C 97% Calm Calm 7.0 mph11.3 kmh 29.75 in1007.5 mb 0.00 in0.0 mm 0.00 in0.0 mm 0.95 in24.1 mm
04:54 AM 64.0°F17.8°C 63.1°F17.3°C 97% Calm Calm 7.0 mph11.3 kmh 29.75 in1007.5 mb 0.00 in0.0 mm 0.00 in0.0 mm 0.95 in24.1 mm
04:52 AM 64.0°F17.8°C 63.1°F17.3°C 97% Calm Calm 7.0 mph11.3 kmh 29.75 in1007.5 mb 0.00 in0.0 mm 0.00 in0.0 mm 0.95 in24.1 mm
04:50 AM 64.1°F17.8°C 63.2°F17.3°C 97% 2.0 mph NW3.2 kmh NW 7.0 mph11.3 kmh 29.75 in1007.5 mb 0.00 in0.0 mm 0.00 in0.0 mm 0.95 in24.1 mm
04:48 AM 64.1°F17.8°C 63.2°F17.3°C 97% Calm Calm 7.0 mph11.3 kmh 29.76 in1007.8 mb 0.00 in0.0 mm 0.00 in0.0 mm 0.95 in24.1 mm
04:46 AM 64.1°F17.8°C 63.2°F17.3°C 97% Calm Calm 7.0 mph11.3 kmh 29.76 in1007.8 mb 0.00 in0.0 mm 0.00 in0.0 mm 0.95 in24.1 mm
04:44 AM 64.1°F17.8°C 63.2°F17.3°C 97% 1.0 mph W1.6 kmh W 7.0 mph11.3 kmh 29.76 in1007.8 mb 0.00 in0.0 mm 0.00 in0.0 mm 0.95 in24.1 mm
04:42 AM 64.1°F17.8°C 63.2°F17.3°C 97% Calm Calm 7.0 mph11.3 kmh 29.75 in1007.5 mb 0.00 in0.0 mm 0.00 in0.0 mm 0.95 in24.1 mm
04:40 AM 64.1°F17.8°C 63.2°F17.3°C 97% Calm Calm 7.0 mph11.3 kmh 29.75 in1007.5 mb 0.00 in0.0 mm 0.00 in0.0 mm 0.95 in24.1 mm
04:38 AM 64.0°F17.8°C 63.1°F17.3°C 97% Calm Calm 7.0 mph11.3 kmh 29.74 in1007.1 mb 0.00 in0.0 mm 0.00 in0.0 mm 0.95 in24.1 mm
04:36 AM 64.0°F17.8°C 63.1°F17.3°C 97% 1.0 mph NW1.6 kmh NW 1.0 mph1.6 kmh 29.74 in1007.1 mb 0.00 in0.0 mm 0.00 in0.0 mm 0.95 in24.1 mm
04:34 AM 64.0°F17.8°C 63.1°F17.3°C 97% Calm Calm -- 29.73 in1006.8 mb 0.00 in0.0 mm 0.00 in0.0 mm 0.95 in24.1 mm
04:32 AM 64.1°F17.8°C 63.2°F17.3°C 97% Calm Calm -- 29.73 in1006.8 mb 0.00 in0.0 mm 0.00 in0.0 mm 0.95 in24.1 mm
04:30 AM 64.1°F17.8°C 63.2°F17.3°C 97% Calm Calm 4.0 mph6.4 kmh 29.73 in1006.8 mb 0.00 in0.0 mm 0.00 in0.0 mm 0.95 in24.1 mm
04:28 AM 64.1°F17.8°C 63.2°F17.3°C 97% Calm Calm 4.0 mph6.4 kmh 29.73 in1006.8 mb 0.00 in0.0 mm 0.00 in0.0 mm 0.95 in24.1 mm
04:26 AM 64.1°F17.8°C 63.2°F17.3°C 97% Calm Calm 4.0 mph6.4 kmh 29.73 in1006.8 mb 0.00 in0.0 mm 0.00 in0.0 mm 0.95 in24.1 mm
04:24 AM 64.1°F17.8°C 63.2°F17.3°C 97% Calm Calm 4.0 mph6.4 kmh 29.73 in1006.8 mb 0.00 in0.0 mm 0.00 in0.0 mm 0.95 in24.1 mm
04:22 AM 64.1°F17.8°C 63.2°F17.3°C 97% Calm Calm 4.0 mph6.4 kmh 29.73 in1006.8 mb 0.00 in0.0 mm 0.00 in0.0 mm 0.95 in24.1 mm
04:20 AM 64.1°F17.8°C 63.2°F17.3°C 97% Calm Calm 4.0 mph6.4 kmh 29.73 in1006.8 mb 0.00 in0.0 mm 0.00 in0.0 mm 0.95 in24.1 mm
04:18 AM 64.1°F17.8°C 63.2°F17.3°C 97% Calm Calm 4.0 mph6.4 kmh 29.73 in1006.8 mb 0.00 in0.0 mm 0.00 in0.0 mm 0.95 in24.1 mm
04:16 AM 64.1°F17.8°C 63.2°F17.3°C 97% Calm Calm 4.0 mph6.4 kmh 29.73 in1006.8 mb 0.00 in0.0 mm 0.00 in0.0 mm 0.95 in24.1 mm
04:14 AM 64.1°F17.8°C 63.2°F17.3°C 97% Calm Calm 4.0 mph6.4 kmh 29.73 in1006.8 mb 0.00 in0.0 mm 0.00 in0.0 mm 0.95 in24.1 mm
04:12 AM 64.1°F17.8°C 63.2°F17.3°C 97% Calm Calm 4.0 mph6.4 kmh 29.73 in1006.8 mb 0.00 in0.0 mm 0.00 in0.0 mm 0.95 in24.1 mm
04:10 AM 64.2°F17.9°C 63.3°F17.4°C 97% Calm Calm 4.0 mph6.4 kmh 29.73 in1006.8 mb 0.00 in0.0 mm 0.00 in0.0 mm 0.95 in24.1 mm
04:08 AM 64.2°F17.9°C 63.3°F17.4°C 97% Calm Calm 4.0 mph6.4 kmh 29.73 in1006.8 mb 0.00 in0.0 mm 0.00 in0.0 mm 0.95 in24.1 mm
04:06 AM 64.3°F17.9°C 63.4°F17.4°C 97% 1.0 mph N1.6 kmh N 4.0 mph6.4 kmh 29.73 in1006.8 mb 0.00 in0.0 mm 0.00 in0.0 mm 0.95 in24.1 mm
04:04 AM 64.3°F17.9°C 63.4°F17.4°C 97% Calm Calm 4.0 mph6.4 kmh 29.73 in1006.8 mb 0.00 in0.0 mm 0.00 in0.0 mm 0.95 in24.1 mm
04:02 AM 64.3°F17.9°C 63.4°F17.4°C 97% Calm Calm 4.0 mph6.4 kmh 29.73 in1006.8 mb 0.00 in0.0 mm 0.00 in0.0 mm 0.95 in24.1 mm
04:01 AM 64.3°F17.9°C 63.4°F17.4°C 97% 2.0 mph NNW3.2 kmh NNW 2.0 mph3.2 kmh 29.73 in1006.8 mb 0.00 in0.0 mm 0.00 in0.0 mm 0.95 in24.1 mm
03:58 AM 64.4°F18.0°C 63.5°F17.5°C 97% Calm Calm 9.0 mph14.5 kmh 29.73 in1006.8 mb 0.00 in0.0 mm 0.00 in0.0 mm 0.95 in24.1 mm
03:56 AM 64.4°F18.0°C 63.5°F17.5°C 97% Calm Calm 9.0 mph14.5 kmh 29.73 in1006.8 mb 0.00 in0.0 mm 0.00 in0.0 mm 0.95 in24.1 mm
03:54 AM 64.5°F18.1°C 63.6°F17.6°C 97% Calm Calm 9.0 mph14.5 kmh 29.73 in1006.8 mb 0.00 in0.0 mm 0.00 in0.0 mm 0.95 in24.1 mm
03:52 AM 64.5°F18.1°C 63.6°F17.6°C 97% Calm Calm 9.0 mph14.5 kmh 29.73 in1006.8 mb 0.00 in0.0 mm 0.00 in0.0 mm 0.95 in24.1 mm
03:50 AM 64.5°F18.1°C 63.6°F17.6°C 97% Calm Calm 9.0 mph14.5 kmh 29.73 in1006.8 mb 0.00 in0.0 mm 0.00 in0.0 mm 0.95 in24.1 mm
03:48 AM 64.6°F18.1°C 63.7°F17.6°C 97% Calm Calm 9.0 mph14.5 kmh 29.73 in1006.8 mb 0.00 in0.0 mm 0.00 in0.0 mm 0.95 in24.1 mm
03:46 AM 64.6°F18.1°C 63.7°F17.6°C 97% Calm Calm 9.0 mph14.5 kmh 29.73 in1006.8 mb 0.00 in0.0 mm 0.00 in0.0 mm 0.95 in24.1 mm
03:44 AM 64.6°F18.1°C 63.7°F17.6°C 97% Calm Calm 9.0 mph14.5 kmh 29.73 in1006.8 mb 0.00 in0.0 mm 0.00 in0.0 mm 0.95 in24.1 mm
03:42 AM 64.7°F18.2°C 63.8°F17.7°C 97% Calm Calm 9.0 mph14.5 kmh 29.73 in1006.8 mb 0.00 in0.0 mm 0.00 in0.0 mm 0.95 in24.1 mm
03:40 AM 64.7°F18.2°C 63.8°F17.7°C 97% Calm Calm 7.0 mph11.3 kmh 29.73 in1006.8 mb 0.00 in0.0 mm 0.00 in0.0 mm 0.95 in24.1 mm
03:38 AM 64.7°F18.2°C 63.8°F17.7°C 97% Calm Calm 3.0 mph4.8 kmh 29.73 in1006.8 mb 0.00 in0.0 mm 0.00 in0.0 mm 0.95 in24.1 mm
03:36 AM 64.7°F18.2°C 63.8°F17.7°C 97% 1.0 mph N1.6 kmh N 3.0 mph4.8 kmh 29.73 in1006.8 mb 0.00 in0.0 mm 0.00 in0.0 mm 0.95 in24.1 mm
03:34 AM 64.7°F18.2°C 63.8°F17.7°C 97% Calm Calm 1.0 mph1.6 kmh 29.74 in1007.1 mb 0.00 in0.0 mm 0.00 in0.0 mm 0.95 in24.1 mm
03:32 AM 64.7°F18.2°C 63.8°F17.7°C 97% Calm Calm 1.0 mph1.6 kmh 29.74 in1007.1 mb 0.00 in0.0 mm 0.00 in0.0 mm 0.95 in24.1 mm
03:30 AM 64.7°F18.2°C 63.8°F17.7°C 97% Calm Calm 4.0 mph6.4 kmh 29.74 in1007.1 mb 0.00 in0.0 mm 0.00 in0.0 mm 0.95 in24.1 mm
03:28 AM 64.8°F18.2°C 63.9°F17.7°C 97% Calm Calm 4.0 mph6.4 kmh 29.74 in1007.1 mb 0.00 in0.0 mm 0.00 in0.0 mm 0.95 in24.1 mm
03:26 AM 64.8°F18.2°C 63.9°F17.7°C 97% Calm Calm 4.0 mph6.4 kmh 29.74 in1007.1 mb 0.00 in0.0 mm 0.00 in0.0 mm 0.95 in24.1 mm
03:24 AM 64.8°F18.2°C 63.9°F17.7°C 97% Calm Calm 4.0 mph6.4 kmh 29.74 in1007.1 mb 0.00 in0.0 mm 0.00 in0.0 mm 0.95 in24.1 mm
03:22 AM 64.9°F18.3°C 64.0°F17.8°C 97% Calm Calm 4.0 mph6.4 kmh 29.74 in1007.1 mb 0.00 in0.0 mm 0.00 in0.0 mm 0.95 in24.1 mm
03:20 AM 64.9°F18.3°C 64.0°F17.8°C 97% Calm Calm 4.0 mph6.4 kmh 29.74 in1007.1 mb 0.00 in0.0 mm 0.00 in0.0 mm 0.95 in24.1 mm
03:18 AM 64.9°F18.3°C 64.0°F17.8°C 97% Calm Calm 4.0 mph6.4 kmh 29.74 in1007.1 mb 0.00 in0.0 mm 0.00 in0.0 mm 0.95 in24.1 mm
03:16 AM 64.9°F18.3°C 64.0°F17.8°C 97% Calm Calm 4.0 mph6.4 kmh 29.74 in1007.1 mb 0.00 in0.0 mm 0.00 in0.0 mm 0.95 in24.1 mm
03:14 AM 64.9°F18.3°C 64.0°F17.8°C 97% Calm Calm 4.0 mph6.4 kmh 29.74 in1007.1 mb 0.00 in0.0 mm 0.00 in0.0 mm 0.95 in24.1 mm
03:12 AM 64.9°F18.3°C 64.0°F17.8°C 97% Calm Calm 4.0 mph6.4 kmh 29.74 in1007.1 mb 0.00 in0.0 mm 0.00 in0.0 mm 0.95 in24.1 mm
03:10 AM 64.9°F18.3°C 64.0°F17.8°C 97% 4.0 mph NNW6.4 kmh NNW 4.0 mph6.4 kmh 29.73 in1006.8 mb 0.00 in0.0 mm 0.00 in0.0 mm 0.95 in24.1 mm
03:08 AM 64.9°F18.3°C 64.0°F17.8°C 97% Calm Calm 4.0 mph6.4 kmh 29.73 in1006.8 mb 0.00 in0.0 mm 0.00 in0.0 mm 0.95 in24.1 mm
03:06 AM 64.9°F18.3°C 64.0°F17.8°C 97% Calm Calm 4.0 mph6.4 kmh 29.73 in1006.8 mb 0.00 in0.0 mm 0.00 in0.0 mm 0.95 in24.1 mm
03:04 AM 65.0°F18.3°C 64.1°F17.8°C 97% Calm Calm 4.0 mph6.4 kmh 29.74 in1007.1 mb 0.00 in0.0 mm 0.00 in0.0 mm 0.95 in24.1 mm
03:02 AM 64.9°F18.3°C 64.0°F17.8°C 97% Calm Calm 4.0 mph6.4 kmh 29.74 in1007.1 mb 0.00 in0.0 mm 0.00 in0.0 mm 0.95 in24.1 mm
03:00 AM 65.0°F18.3°C 64.1°F17.8°C 97% Calm Calm 4.0 mph6.4 kmh 29.74 in1007.1 mb 0.00 in0.0 mm 0.00 in0.0 mm 0.95 in24.1 mm
02:58 AM 65.0°F18.3°C 64.1°F17.8°C 97% Calm Calm 4.0 mph6.4 kmh 29.74 in1007.1 mb 0.00 in0.0 mm 0.00 in0.0 mm 0.95 in24.1 mm
02:56 AM 65.0°F18.3°C 64.1°F17.8°C 97% Calm Calm 4.0 mph6.4 kmh 29.74 in1007.1 mb 0.00 in0.0 mm 0.00 in0.0 mm 0.95 in24.1 mm
02:54 AM 65.0°F18.3°C 64.1°F17.8°C 97% Calm Calm 4.0 mph6.4 kmh 29.74 in1007.1 mb 0.00 in0.0 mm 0.00 in0.0 mm 0.95 in24.1 mm
02:52 AM 65.0°F18.3°C 64.1°F17.8°C 97% Calm Calm 4.0 mph6.4 kmh 29.74 in1007.1 mb 0.00 in0.0 mm 0.00 in0.0 mm 0.95 in24.1 mm
02:50 AM 65.0°F18.3°C 64.1°F17.8°C 97% Calm Calm 4.0 mph6.4 kmh 29.74 in1007.1 mb 0.00 in0.0 mm 0.00 in0.0 mm 0.95 in24.1 mm
02:48 AM 65.0°F18.3°C 64.1°F17.8°C 97% Calm Calm 4.0 mph6.4 kmh 29.75 in1007.5 mb 0.00 in0.0 mm 0.00 in0.0 mm 0.95 in24.1 mm
02:46 AM 65.0°F18.3°C 64.1°F17.8°C 97% Calm Calm 4.0 mph6.4 kmh 29.74 in1007.1 mb 0.00 in0.0 mm 0.00 in0.0 mm 0.95 in24.1 mm
02:44 AM 65.0°F18.3°C 64.1°F17.8°C 97% Calm Calm 4.0 mph6.4 kmh 29.74 in1007.1 mb 0.00 in0.0 mm 0.00 in0.0 mm 0.95 in24.1 mm
02:42 AM 64.9°F18.3°C 64.0°F17.8°C 97% Calm Calm 4.0 mph6.4 kmh 29.74 in1007.1 mb 0.00 in0.0 mm 0.00 in0.0 mm 0.95 in24.1 mm
02:40 AM 64.9°F18.3°C 64.0°F17.8°C 97% Calm Calm 4.0 mph6.4 kmh 29.74 in1007.1 mb 0.00 in0.0 mm 0.00 in0.0 mm 0.95 in24.1 mm
02:38 AM 64.9°F18.3°C 64.0°F17.8°C 97% Calm Calm 4.0 mph6.4 kmh 29.74 in1007.1 mb 0.00 in0.0 mm 0.00 in0.0 mm 0.95 in24.1 mm
02:36 AM 64.9°F18.3°C 64.0°F17.8°C 97% Calm Calm 4.0 mph6.4 kmh 29.74 in1007.1 mb 0.00 in0.0 mm 0.00 in0.0 mm 0.95 in24.1 mm
02:34 AM 64.9°F18.3°C 64.0°F17.8°C 97% Calm Calm 4.0 mph6.4 kmh 29.74 in1007.1 mb 0.00 in0.0 mm 0.00 in0.0 mm 0.95 in24.1 mm
02:32 AM 64.9°F18.3°C 64.0°F17.8°C 97% Calm Calm 1.0 mph1.6 kmh 29.74 in1007.1 mb 0.00 in0.0 mm 0.00 in0.0 mm 0.95 in24.1 mm
02:30 AM 65.0°F18.3°C 64.1°F17.8°C 97% Calm Calm 5.0 mph8.0 kmh 29.74 in1007.1 mb 0.00 in0.0 mm 0.00 in0.0 mm 0.95 in24.1 mm
02:28 AM 65.0°F18.3°C 64.1°F17.8°C 97% Calm Calm 5.0 mph8.0 kmh 29.74 in1007.1 mb 0.00 in0.0 mm 0.00 in0.0 mm 0.95 in24.1 mm
02:26 AM 64.9°F18.3°C 64.0°F17.8°C 97% Calm Calm 5.0 mph8.0 kmh 29.74 in1007.1 mb 0.00 in0.0 mm 0.00 in0.0 mm 0.95 in24.1 mm
02:24 AM 65.0°F18.3°C 64.1°F17.8°C 97% Calm Calm 5.0 mph8.0 kmh 29.73 in1006.8 mb 0.00 in0.0 mm 0.00 in0.0 mm 0.95 in24.1 mm
02:22 AM 65.0°F18.3°C 64.1°F17.8°C 97% Calm Calm 5.0 mph8.0 kmh 29.72 in1006.4 mb 0.00 in0.0 mm 0.00 in0.0 mm 0.95 in24.1 mm
02:20 AM 65.0°F18.3°C 64.1°F17.8°C 97% Calm Calm 5.0 mph8.0 kmh 29.72 in1006.4 mb 0.00 in0.0 mm 0.00 in0.0 mm 0.95 in24.1 mm
02:18 AM 65.0°F18.3°C 64.1°F17.8°C 97% Calm Calm 5.0 mph8.0 kmh 29.72 in1006.4 mb 0.00 in0.0 mm 0.00 in0.0 mm 0.95 in24.1 mm
02:16 AM 65.0°F18.3°C 64.1°F17.8°C 97% Calm Calm 5.0 mph8.0 kmh 29.73 in1006.8 mb 0.00 in0.0 mm 0.00 in0.0 mm 0.95 in24.1 mm
02:14 AM 65.0°F18.3°C 64.1°F17.8°C 97% Calm Calm 5.0 mph8.0 kmh 29.73 in1006.8 mb 0.00 in0.0 mm 0.00 in0.0 mm 0.95 in24.1 mm
02:12 AM 65.0°F18.3°C 64.1°F17.8°C 97% Calm Calm 5.0 mph8.0 kmh 29.73 in1006.8 mb 0.00 in0.0 mm 0.00 in0.0 mm 0.95 in24.1 mm
02:10 AM 65.0°F18.3°C 64.1°F17.8°C 97% Calm Calm 5.0 mph8.0 kmh 29.74 in1007.1 mb 0.00 in0.0 mm 0.00 in0.0 mm 0.95 in24.1 mm
02:08 AM 65.0°F18.3°C 64.1°F17.8°C 97% Calm Calm 5.0 mph8.0 kmh 29.74 in1007.1 mb 0.00 in0.0 mm 0.00 in0.0 mm 0.95 in24.1 mm
02:06 AM 65.1°F18.4°C 64.2°F17.9°C 97% Calm Calm 5.0 mph8.0 kmh 29.74 in1007.1 mb 0.00 in0.0 mm 0.00 in0.0 mm 0.95 in24.1 mm
02:04 AM 65.1°F18.4°C 64.2°F17.9°C 97% Calm Calm 5.0 mph8.0 kmh 29.74 in1007.1 mb 0.00 in0.0 mm 0.00 in0.0 mm 0.95 in24.1 mm
02:02 AM 65.1°F18.4°C 64.2°F17.9°C 97% Calm Calm 4.0 mph6.4 kmh 29.74 in1007.1 mb 0.00 in0.0 mm 0.00 in0.0 mm 0.95 in24.1 mm
02:00 AM 65.1°F18.4°C 64.2°F17.9°C 97% Calm Calm -- 29.74 in1007.1 mb 0.00 in0.0 mm 0.00 in0.0 mm 0.95 in24.1 mm
01:58 AM 65.1°F18.4°C 64.2°F17.9°C 97% Calm Calm 5.0 mph8.0 kmh 29.74 in1007.1 mb 0.00 in0.0 mm 0.00 in0.0 mm 0.95 in24.1 mm
01:56 AM 65.1°F18.4°C 64.2°F17.9°C 97% 1.0 mph NE1.6 kmh NE 5.0 mph8.0 kmh 29.74 in1007.1 mb 0.00 in0.0 mm 0.00 in0.0 mm 0.95 in24.1 mm
01:54 AM 65.2°F18.4°C 64.3°F17.9°C 97% Calm Calm 5.0 mph8.0 kmh 29.74 in1007.1 mb 0.00 in0.0 mm 0.00 in0.0 mm 0.95 in24.1 mm
01:52 AM 65.2°F18.4°C 64.3°F17.9°C 97% Calm Calm 5.0 mph8.0 kmh 29.74 in1007.1 mb 0.00 in0.0 mm 0.00 in0.0 mm 0.95 in24.1 mm
01:50 AM 65.2°F18.4°C 64.3°F17.9°C 97% Calm Calm 5.0 mph8.0 kmh 29.75 in1007.5 mb 0.00 in0.0 mm 0.00 in0.0 mm 0.95 in24.1 mm
01:48 AM 65.2°F18.4°C 64.3°F17.9°C 97% Calm Calm 5.0 mph8.0 kmh 29.74 in1007.1 mb 0.00 in0.0 mm 0.00 in0.0 mm 0.95 in24.1 mm
01:46 AM 65.2°F18.4°C 64.3°F17.9°C 97% Calm Calm 3.0 mph4.8 kmh 29.74 in1007.1 mb 0.00 in0.0 mm 0.00 in0.0 mm 0.95 in24.1 mm
01:44 AM 65.2°F18.4°C 64.3°F17.9°C 97% 1.0 mph N1.6 kmh N 3.0 mph4.8 kmh 29.75 in1007.5 mb 0.00 in0.0 mm 0.00 in0.0 mm 0.95 in24.1 mm
01:42 AM 65.2°F18.4°C 64.3°F17.9°C 97% Calm Calm 3.0 mph4.8 kmh 29.75 in1007.5 mb 0.00 in0.0 mm 0.00 in0.0 mm 0.95 in24.1 mm
01:40 AM 65.2°F18.4°C 64.3°F17.9°C 97% Calm Calm 3.0 mph4.8 kmh 29.75 in1007.5 mb 0.00 in0.0 mm 0.00 in0.0 mm 0.95 in24.1 mm
01:38 AM 65.3°F18.5°C 64.4°F18.0°C 97% Calm Calm -- 29.75 in1007.5 mb 0.00 in0.0 mm 0.00 in0.0 mm 0.95 in24.1 mm
01:36 AM 65.3°F18.5°C 64.4°F18.0°C 97% Calm Calm -- 29.75 in1007.5 mb 0.00 in0.0 mm 0.00 in0.0 mm 0.95 in24.1 mm
01:34 AM 65.3°F18.5°C 64.4°F18.0°C 97% Calm Calm -- 29.75 in1007.5 mb 0.00 in0.0 mm 0.00 in0.0 mm 0.95 in24.1 mm
01:32 AM 65.4°F18.6°C 64.5°F18.1°C 97% Calm Calm -- 29.75 in1007.5 mb 0.00 in0.0 mm 0.00 in0.0 mm 0.95 in24.1 mm
01:30 AM 65.4°F18.6°C 64.5°F18.1°C 97% Calm Calm 7.0 mph11.3 kmh 29.75 in1007.5 mb 0.00 in0.0 mm 0.00 in0.0 mm 0.95 in24.1 mm
01:28 AM 65.4°F18.6°C 64.5°F18.1°C 97% Calm Calm 7.0 mph11.3 kmh 29.75 in1007.5 mb 0.00 in0.0 mm 0.00 in0.0 mm 0.95 in24.1 mm
01:26 AM 65.4°F18.6°C 64.2°F17.9°C 96% Calm Calm 7.0 mph11.3 kmh 29.75 in1007.5 mb 0.00 in0.0 mm 0.00 in0.0 mm 0.95 in24.1 mm
01:24 AM 65.4°F18.6°C 64.2°F17.9°C 96% Calm Calm 7.0 mph11.3 kmh 29.75 in1007.5 mb 0.00 in0.0 mm 0.00 in0.0 mm 0.95 in24.1 mm
01:22 AM 65.4°F18.6°C 64.2°F17.9°C 96% Calm Calm 7.0 mph11.3 kmh 29.75 in1007.5 mb 0.00 in0.0 mm 0.00 in0.0 mm 0.95 in24.1 mm
01:20 AM 65.4°F18.6°C 64.2°F17.9°C 96% Calm Calm 7.0 mph11.3 kmh 29.75 in1007.5 mb 0.00 in0.0 mm 0.00 in0.0 mm 0.95 in24.1 mm
01:18 AM 65.5°F18.6°C 64.3°F17.9°C 96% Calm Calm 7.0 mph11.3 kmh 29.75 in1007.5 mb 0.00 in0.0 mm 0.00 in0.0 mm 0.95 in24.1 mm
01:16 AM 65.5°F18.6°C 64.3°F17.9°C 96% Calm Calm 7.0 mph11.3 kmh 29.75 in1007.5 mb 0.00 in0.0 mm 0.00 in0.0 mm 0.95 in24.1 mm
01:14 AM 65.5°F18.6°C 64.3°F17.9°C 96% Calm Calm 7.0 mph11.3 kmh 29.76 in1007.8 mb 0.00 in0.0 mm 0.00 in0.0 mm 0.95 in24.1 mm
01:12 AM 65.6°F18.7°C 64.4°F18.0°C 96% Calm Calm 7.0 mph11.3 kmh 29.75 in1007.5 mb 0.00 in0.0 mm 0.00 in0.0 mm 0.95 in24.1 mm
01:10 AM 65.6°F18.7°C 64.4°F18.0°C 96% Calm Calm 7.0 mph11.3 kmh 29.76 in1007.8 mb 0.00 in0.0 mm 0.00 in0.0 mm 0.95 in24.1 mm
01:08 AM 65.6°F18.7°C 64.4°F18.0°C 96% Calm Calm 4.0 mph6.4 kmh 29.75 in1007.5 mb 0.00 in0.0 mm 0.00 in0.0 mm 0.95 in24.1 mm
01:06 AM 65.6°F18.7°C 64.7°F18.2°C 97% Calm Calm 4.0 mph6.4 kmh 29.75 in1007.5 mb 0.00 in0.0 mm 0.00 in0.0 mm 0.95 in24.1 mm
01:04 AM 65.7°F18.7°C 64.8°F18.2°C 97% Calm Calm 4.0 mph6.4 kmh 29.75 in1007.5 mb 0.00 in0.0 mm 0.00 in0.0 mm 0.95 in24.1 mm
01:02 AM 65.7°F18.7°C 64.8°F18.2°C 97% 2.0 mph NW3.2 kmh NW 4.0 mph6.4 kmh 29.76 in1007.8 mb 0.00 in0.0 mm 0.00 in0.0 mm 0.95 in24.1 mm
01:00 AM 65.7°F18.7°C 64.8°F18.2°C 97% Calm Calm 4.0 mph6.4 kmh 29.75 in1007.5 mb 0.95 in24.1 mm 0.00 in0.0 mm 0.95 in24.1 mm
12:58 AM 65.7°F18.7°C 64.8°F18.2°C 97% Calm Calm 4.0 mph6.4 kmh 29.75 in1007.5 mb 0.95 in24.1 mm 0.00 in0.0 mm 0.95 in24.1 mm
12:56 AM 65.8°F18.8°C 64.9°F18.3°C 97% Calm Calm 4.0 mph6.4 kmh 29.75 in1007.5 mb 0.95 in24.1 mm 0.00 in0.0 mm 0.95 in24.1 mm
12:54 AM 65.8°F18.8°C 64.9°F18.3°C 97% Calm Calm 4.0 mph6.4 kmh 29.75 in1007.5 mb 0.95 in24.1 mm 0.00 in0.0 mm 0.95 in24.1 mm
12:52 AM 65.8°F18.8°C 64.9°F18.3°C 97% Calm Calm 4.0 mph6.4 kmh 29.75 in1007.5 mb 0.95 in24.1 mm 0.00 in0.0 mm 0.95 in24.1 mm
12:50 AM 65.8°F18.8°C 64.9°F18.3°C 97% Calm Calm 4.0 mph6.4 kmh 29.75 in1007.5 mb 0.95 in24.1 mm 0.00 in0.0 mm 0.95 in24.1 mm
12:48 AM 65.8°F18.8°C 64.6°F18.1°C 96% Calm Calm 4.0 mph6.4 kmh 29.75 in1007.5 mb 0.95 in24.1 mm 0.00 in0.0 mm 0.95 in24.1 mm
12:46 AM 65.9°F18.8°C 65.0°F18.3°C 97% Calm Calm 4.0 mph6.4 kmh 29.75 in1007.5 mb 0.95 in24.1 mm 0.00 in0.0 mm 0.95 in24.1 mm
12:44 AM 65.9°F18.8°C 64.7°F18.2°C 96% Calm Calm 4.0 mph6.4 kmh 29.75 in1007.5 mb 0.95 in24.1 mm 0.00 in0.0 mm 0.95 in24.1 mm
12:42 AM 65.9°F18.8°C 64.7°F18.2°C 96% 4.0 mph NNW6.4 kmh NNW 4.0 mph6.4 kmh 29.75 in1007.5 mb 0.95 in24.1 mm 0.00 in0.0 mm 0.95 in24.1 mm
12:40 AM 65.9°F18.8°C 64.7°F18.2°C 96% Calm Calm 3.0 mph4.8 kmh 29.75 in1007.5 mb 0.95 in24.1 mm 0.00 in0.0 mm 0.95 in24.1 mm
12:38 AM 66.0°F18.9°C 64.8°F18.2°C 96% Calm Calm -- 29.75 in1007.5 mb 0.95 in24.1 mm 0.00 in0.0 mm 0.95 in24.1 mm
12:36 AM 66.0°F18.9°C 64.8°F18.2°C 96% Calm Calm -- 29.75 in1007.5 mb 0.95 in24.1 mm 0.00 in0.0 mm 0.95 in24.1 mm
12:34 AM 66.1°F18.9°C 64.9°F18.3°C 96% Calm Calm -- 29.75 in1007.5 mb 0.95 in24.1 mm 0.00 in0.0 mm 0.95 in24.1 mm
12:32 AM 66.1°F18.9°C 64.9°F18.3°C 96% Calm Calm -- 29.75 in1007.5 mb 0.95 in24.1 mm 0.00 in0.0 mm 0.95 in24.1 mm
12:30 AM 66.1°F18.9°C 64.9°F18.3°C 96% Calm Calm 9.0 mph14.5 kmh 29.75 in1007.5 mb 0.95 in24.1 mm 0.00 in0.0 mm 0.95 in24.1 mm
12:28 AM 66.2°F19.0°C 65.0°F18.3°C 96% Calm Calm 9.0 mph14.5 kmh 29.75 in1007.5 mb 0.95 in24.1 mm 0.00 in0.0 mm 0.95 in24.1 mm
12:26 AM 66.3°F19.1°C 65.1°F18.4°C 96% Calm Calm 9.0 mph14.5 kmh 29.75 in1007.5 mb 0.95 in24.1 mm 0.00 in0.0 mm 0.95 in24.1 mm
12:24 AM 66.3°F19.1°C 65.4°F18.6°C 97% Calm Calm 9.0 mph14.5 kmh 29.74 in1007.1 mb 0.95 in24.1 mm 0.00 in0.0 mm 0.95 in24.1 mm
12:22 AM 66.4°F19.1°C 65.5°F18.6°C 97% Calm Calm 9.0 mph14.5 kmh 29.75 in1007.5 mb 0.95 in24.1 mm 0.00 in0.0 mm 0.95 in24.1 mm
12:20 AM 66.4°F19.1°C 65.2°F18.4°C 96% Calm Calm 9.0 mph14.5 kmh 29.75 in1007.5 mb 0.95 in24.1 mm 0.00 in0.0 mm 0.95 in24.1 mm
12:18 AM 66.5°F19.2°C 65.3°F18.5°C 96% Calm Calm 9.0 mph14.5 kmh 29.75 in1007.5 mb 0.95 in24.1 mm 0.00 in0.0 mm 0.95 in24.1 mm
12:16 AM 66.5°F19.2°C 65.6°F18.7°C 97% Calm Calm 9.0 mph14.5 kmh 29.75 in1007.5 mb 0.95 in24.1 mm 0.00 in0.0 mm 0.95 in24.1 mm
12:14 AM 66.6°F19.2°C 65.7°F18.7°C 97% Calm Calm 6.0 mph9.7 kmh 29.75 in1007.5 mb 0.95 in24.1 mm 0.00 in0.0 mm 0.95 in24.1 mm
12:12 AM 66.5°F19.2°C 65.6°F18.7°C 97% Calm Calm 6.0 mph9.7 kmh 29.75 in1007.5 mb 0.95 in24.1 mm 0.00 in0.0 mm 0.95 in24.1 mm
12:10 AM 66.6°F19.2°C 65.4°F18.6°C 96% Calm Calm 6.0 mph9.7 kmh 29.75 in1007.5 mb 0.95 in24.1 mm 0.00 in0.0 mm 0.95 in24.1 mm
12:08 AM 66.6°F19.2°C 65.4°F18.6°C 96% Calm Calm 3.0 mph4.8 kmh 29.75 in1007.5 mb 0.95 in24.1 mm 0.00 in0.0 mm 0.95 in24.1 mm
12:06 AM 66.6°F19.2°C 65.4°F18.6°C 96% Calm Calm 3.0 mph4.8 kmh 29.75 in1007.5 mb 0.95 in24.1 mm 0.00 in0.0 mm 0.95 in24.1 mm
12:04 AM 66.6°F19.2°C 65.4°F18.6°C 96% Calm Calm 2.0 mph3.2 kmh 29.75 in1007.5 mb 0.95 in24.1 mm 0.00 in0.0 mm 0.95 in24.1 mm
12:02 AM 66.7°F19.3°C 65.5°F18.6°C 96% Calm Calm 2.0 mph3.2 kmh 29.75 in1007.5 mb 0.95 in24.1 mm 0.00 in0.0 mm 0.95 in24.1 mm
12:01 AM 66.7°F19.3°C 65.5°F18.6°C 96% Calm Calm 2.0 mph3.2 kmh 29.75 in1007.5 mb 0.95 in24.1 mm 57.00 in1447.8 mm 0.95 in24.1 mm